createdAt,value
2018-05-12T00:00:46.784Z,96101.45
2018-05-12T00:03:14.823Z,96109.05
2018-05-12T00:05:42.569Z,96102.47
2018-05-12T00:08:10.121Z,96113.51
2018-05-12T00:10:37.797Z,96111.55
2018-05-12T00:13:05.478Z,96109.58
2018-05-12T00:15:33.071Z,96106.65
2018-05-12T00:18:00.748Z,96106.32
2018-05-12T00:20:31.119Z,96102.41
2018-05-12T00:22:58.586Z,96097.42
2018-05-12T00:25:26.134Z,96096.19
2018-05-12T00:27:53.777Z,96103.64
2018-05-12T00:30:21.373Z,96100.55
2018-05-12T00:32:48.891Z,96095.94
2018-05-12T00:35:16.425Z,96097.80
2018-05-12T00:37:43.959Z,96100.39
2018-05-12T00:40:11.513Z,96094.71
2018-05-12T00:42:39.119Z,96098.50
2018-05-12T00:45:06.584Z,96099.86
2018-05-12T00:47:34.123Z,96099.39
2018-05-12T00:50:01.679Z,96102.20
2018-05-12T00:52:29.234Z,96096.62
2018-05-12T00:57:46.898Z,96098.93
2018-05-12T01:00:14.391Z,96098.90
2018-05-12T01:02:41.902Z,96094.73
2018-05-12T01:05:09.644Z,96097.39
2018-05-12T01:07:37.273Z,96095.59
2018-05-12T01:10:04.805Z,96101.74
2018-05-12T01:12:32.361Z,96096.47
2018-05-12T01:14:59.859Z,96098.21
2018-05-12T01:17:27.379Z,96092.13
2018-05-12T01:19:54.951Z,96092.28
2018-05-12T01:22:22.647Z,96091.08
2018-05-12T01:24:50.187Z,96088.34
2018-05-12T01:27:17.711Z,96088.41
2018-05-12T01:29:45.231Z,96088.91
2018-05-12T01:32:12.812Z,96088.66
2018-05-12T01:34:40.345Z,96092.31
2018-05-12T01:37:07.933Z,96087.36
2018-05-12T01:39:35.448Z,96085.41
2018-05-12T01:42:02.974Z,96080.39
2018-05-12T01:44:30.595Z,96081.80
2018-05-12T01:46:58.196Z,96077.36
2018-05-12T01:49:25.812Z,96073.92
2018-05-12T01:51:53.400Z,96082.34
2018-05-12T01:54:20.956Z,96074.33
2018-05-12T01:56:48.449Z,96072.62
2018-05-12T01:59:16.046Z,96076.28
2018-05-12T02:01:43.607Z,96073.67
2018-05-12T02:04:11.187Z,96077.38
2018-05-12T02:06:38.846Z,96076.68
2018-05-12T02:09:06.486Z,96076.83
2018-05-12T02:11:34.022Z,96079.95
2018-05-12T02:14:01.543Z,96081.65
2018-05-12T02:16:29.164Z,96077.48
2018-05-12T02:18:56.685Z,96080.10
2018-05-12T02:21:24.252Z,96079.75
2018-05-12T02:23:51.856Z,96083.37
2018-05-12T02:26:19.441Z,96090.66
2018-05-12T02:28:47.025Z,96087.66
2018-05-12T02:31:14.621Z,96092.79
2018-05-12T02:33:42.243Z,96089.59
2018-05-12T02:36:09.828Z,96087.98
2018-05-12T02:38:37.412Z,96083.66
2018-05-12T02:41:05.022Z,96086.75
2018-05-12T02:43:32.550Z,96090.62
2018-05-12T02:46:00.123Z,96084.72
2018-05-12T02:48:27.696Z,96085.30
2018-05-12T02:50:55.337Z,96085.39
2018-05-12T02:53:22.835Z,96087.51
2018-05-12T02:55:50.577Z,96083.89
2018-05-12T02:58:18.310Z,96086.88
2018-05-12T03:00:45.852Z,96080.22
2018-05-12T03:03:13.365Z,96084.20
2018-05-12T03:05:40.909Z,96086.47
2018-05-12T03:08:08.422Z,96081.48
2018-05-12T03:10:36.040Z,96073.58
2018-05-12T03:13:03.624Z,96084.42
2018-05-12T03:15:31.150Z,96088.55
2018-05-12T03:17:58.689Z,96088.08
2018-05-12T03:20:26.240Z,96094.18
2018-05-12T03:22:53.852Z,96091.91
2018-05-12T03:25:21.879Z,96089.13
2018-05-12T03:27:49.593Z,96086.95
2018-05-12T03:30:17.277Z,96090.47
2018-05-12T03:32:44.889Z,96097.08
2018-05-12T03:35:12.595Z,96092.95
2018-05-12T03:37:40.249Z,96091.03
2018-05-12T03:40:07.846Z,96099.19
2018-05-12T03:42:35.440Z,96097.91
2018-05-12T03:45:03.065Z,96102.09
2018-05-12T03:47:30.619Z,96098.11
2018-05-12T03:49:58.149Z,96102.91
2018-05-12T03:52:25.788Z,96102.81
2018-05-12T03:54:53.310Z,96105.39
2018-05-12T03:57:20.832Z,96107.05
2018-05-12T03:59:48.409Z,96110.16
2018-05-12T04:02:16.433Z,96110.20
2018-05-12T04:04:58.571Z,96110.52
2018-05-12T04:07:37.934Z,96110.87
2018-05-12T04:10:17.246Z,96115.00
2018-05-12T04:12:45.658Z,96113.96
2018-05-12T04:15:13.192Z,96119.28
2018-05-12T04:17:40.767Z,96114.89
2018-05-12T04:20:08.417Z,96119.60
2018-05-12T04:22:36.060Z,96117.84
2018-05-12T04:25:03.737Z,96118.34
2018-05-12T04:27:31.437Z,96124.59
2018-05-12T04:29:58.982Z,96126.97
2018-05-12T04:32:26.532Z,96126.70
2018-05-12T04:34:54.067Z,96130.67
2018-05-12T04:37:21.577Z,96124.47
2018-05-12T04:39:49.143Z,96136.61
2018-05-12T04:42:16.669Z,96128.27
2018-05-12T04:44:45.137Z,96124.77
2018-05-12T04:47:13.075Z,96122.78
2018-05-12T04:49:40.696Z,96127.83
2018-05-12T04:52:08.329Z,96123.73
2018-05-12T04:54:35.956Z,96127.45
2018-05-12T04:57:03.589Z,96126.76
2018-05-12T04:59:31.194Z,96127.33
2018-05-12T05:01:59.167Z,96130.22
2018-05-12T05:04:26.739Z,96122.41
2018-05-12T05:06:54.346Z,96122.78
2018-05-12T05:09:21.959Z,96121.50
2018-05-12T05:11:49.556Z,96122.27
2018-05-12T05:14:17.207Z,96125.44
2018-05-12T05:16:44.815Z,96121.07
2018-05-12T05:19:12.447Z,96114.20
2018-05-12T05:21:39.959Z,96119.15
2018-05-12T05:24:07.515Z,96124.38
2018-05-12T05:26:35.027Z,96130.45
2018-05-12T05:29:02.551Z,96122.94
2018-05-12T05:31:30.088Z,96120.75
2018-05-12T05:33:57.618Z,96125.80
2018-05-12T05:36:25.163Z,96119.47
2018-05-12T05:38:52.717Z,96116.96
2018-05-12T05:41:20.220Z,96118.64
2018-05-12T05:43:47.752Z,96119.20
2018-05-12T05:46:15.314Z,96115.47
2018-05-12T05:48:42.911Z,96121.63
2018-05-12T05:51:10.665Z,96106.47
2018-05-12T05:53:38.332Z,96119.49
2018-05-12T05:56:05.872Z,96123.52
2018-05-12T05:58:33.617Z,96121.41
2018-05-12T06:01:01.165Z,96116.94
2018-05-12T06:03:28.709Z,96120.08
2018-05-12T06:05:56.304Z,96121.50
2018-05-12T06:08:23.825Z,96118.98
2018-05-12T06:10:51.370Z,96118.28
2018-05-12T06:13:18.904Z,96119.28
2018-05-12T06:15:46.557Z,96117.86
2018-05-12T06:18:14.163Z,96124.66
2018-05-12T06:20:41.844Z,96124.02
2018-05-12T06:23:09.604Z,96124.13
2018-05-12T06:25:37.359Z,96116.45
2018-05-12T06:28:05.014Z,96115.87
2018-05-12T06:30:32.689Z,96118.81
2018-05-12T06:33:00.360Z,96115.69
2018-05-12T06:35:28.025Z,96118.10
2018-05-12T06:37:55.841Z,96114.79
2018-05-12T06:40:23.554Z,96118.34
2018-05-12T06:42:51.216Z,96118.84
2018-05-12T06:45:18.768Z,96116.66
2018-05-12T06:47:47.163Z,96124.23
2018-05-12T06:50:14.817Z,96120.09
2018-05-12T06:52:43.479Z,96115.15
2018-05-12T06:55:11.987Z,96114.56
2018-05-12T06:57:39.741Z,96113.82
2018-05-12T07:00:07.433Z,96116.42
2018-05-12T07:02:35.054Z,96114.86
2018-05-12T07:05:02.710Z,96116.52
2018-05-12T07:07:30.377Z,96114.18
2018-05-12T07:09:58.102Z,96119.26
2018-05-12T07:12:25.895Z,96112.31
2018-05-12T07:14:53.513Z,96110.44
2018-05-12T07:17:21.134Z,96115.22
2018-05-12T07:19:48.817Z,96117.70
2018-05-12T07:24:50.426Z,96119.94
2018-05-12T07:27:18.074Z,96115.98
2018-05-12T07:29:45.723Z,96116.14
2018-05-12T07:32:13.328Z,96112.27
2018-05-12T07:34:42.276Z,96107.34
2018-05-12T07:37:10.068Z,96111.30
2018-05-12T07:39:37.763Z,96112.98
2018-05-12T07:42:05.764Z,96116.81
2018-05-12T07:44:33.499Z,96111.38
2018-05-12T07:47:01.161Z,96109.88
2018-05-12T07:49:28.855Z,96087.98
2018-05-12T07:51:56.513Z,96104.17
2018-05-12T07:54:24.225Z,96107.91
2018-05-12T07:56:52.672Z,96104.17
2018-05-12T07:59:20.315Z,96099.84
2018-05-12T08:01:47.916Z,96101.92
2018-05-12T08:04:17.098Z,96095.91
2018-05-12T08:06:45.117Z,96100.42
2018-05-12T08:09:14.637Z,96092.39
2018-05-12T08:11:44.203Z,96094.05
2018-05-12T08:14:11.764Z,96095.27
2018-05-12T08:16:39.461Z,96088.87
2018-05-12T08:19:08.981Z,96099.30
2018-05-12T08:21:36.789Z,96090.67
2018-05-12T08:24:06.229Z,96086.11
2018-05-12T08:26:34.061Z,96086.58
2018-05-12T08:29:01.589Z,96077.45
2018-05-12T08:31:29.941Z,96071.33
2018-05-12T08:33:59.640Z,96068.39
2018-05-12T08:36:28.051Z,96075.63
2018-05-12T08:38:56.390Z,96066.27
2018-05-12T08:41:25.702Z,96073.23
2018-05-12T08:43:53.612Z,96075.55
2018-05-12T08:46:21.167Z,96067.06
2018-05-12T08:48:49.394Z,96066.31
2018-05-12T08:51:20.250Z,96067.00
2018-05-12T08:53:47.908Z,96067.08
2018-05-12T08:56:15.609Z,96064.45
2018-05-12T08:58:43.353Z,96067.28
2018-05-12T09:01:11.075Z,96061.86
2018-05-12T09:03:39.468Z,96059.03
2018-05-12T09:06:07.753Z,96056.94
2018-05-12T09:08:35.342Z,96064.75
2018-05-12T09:11:05.676Z,96055.91
2018-05-12T09:13:34.102Z,96063.05
2018-05-12T09:16:04.683Z,96049.91
2018-05-12T09:18:33.255Z,96054.58
2018-05-12T09:21:05.095Z,96051.03
2018-05-12T09:23:32.782Z,96050.80
2018-05-12T09:26:03.082Z,96054.70
2018-05-12T09:28:31.010Z,96047.03
2018-05-12T09:30:59.633Z,96042.92
2018-05-12T09:33:30.328Z,96045.73
2018-05-12T09:36:02.826Z,96040.18
2018-05-12T09:38:33.734Z,96045.34
2018-05-12T09:41:01.444Z,96039.75
2018-05-12T09:43:41.128Z,96038.95
2018-05-12T09:46:08.868Z,96040.89
2018-05-12T09:48:37.357Z,96027.70
2018-05-12T09:51:05.396Z,96031.80
2018-05-12T09:53:33.120Z,96032.23
2018-05-12T09:56:01.783Z,96021.50
2018-05-12T09:58:38.251Z,96022.65
2018-05-12T10:01:06.027Z,96018.80
2018-05-12T10:03:40.396Z,96012.86
2018-05-12T10:06:08.399Z,96012.70
2018-05-12T10:08:37.157Z,96009.61
2018-05-12T10:11:05.795Z,96004.20
2018-05-12T10:13:41.396Z,96012.63
2018-05-12T10:16:15.389Z,96009.72
2018-05-12T10:18:43.000Z,96009.19
2018-05-12T10:21:13.612Z,96009.45
2018-05-12T10:23:44.526Z,96004.88
2018-05-12T10:29:30.035Z,95994.70
2018-05-12T10:32:04.799Z,95991.32
2018-05-12T10:34:32.622Z,96000.50
2018-05-12T10:37:05.255Z,95994.15
2018-05-12T10:39:37.484Z,95989.39
2018-05-12T10:42:06.351Z,95984.35
2018-05-12T10:44:43.308Z,95987.39
2018-05-12T10:47:17.204Z,95977.27
2018-05-12T10:49:46.526Z,95968.51
2018-05-12T10:52:17.844Z,95972.66
2018-05-12T10:54:46.049Z,95958.42
2018-05-12T10:57:31.972Z,95958.53
2018-05-12T11:02:54.710Z,95951.06
2018-05-12T11:05:22.752Z,95948.38
2018-05-12T11:08:04.304Z,95918.65
2018-05-12T11:10:34.859Z,95940.95
2018-05-12T11:13:03.473Z,95935.61
2018-05-12T11:15:36.780Z,95942.48
2018-05-12T11:18:08.843Z,95936.95
2018-05-12T11:20:38.456Z,95933.60
2018-05-12T11:23:08.150Z,95932.28
2018-05-12T11:25:43.599Z,95931.17
2018-05-12T11:28:15.752Z,95929.64
2018-05-12T11:30:43.471Z,95932.53
2018-05-12T11:33:14.094Z,95917.01
2018-05-12T11:35:46.569Z,95920.37
2018-05-12T11:38:14.177Z,95919.54
2018-05-12T11:40:41.954Z,95916.48
2018-05-12T11:43:12.639Z,95912.80
2018-05-12T11:45:40.204Z,95909.12
2018-05-12T11:48:27.786Z,95910.36
2018-05-12T11:50:57.599Z,95903.28
2018-05-12T11:56:21.018Z,95897.59
2018-05-12T11:58:48.624Z,95883.70
2018-05-12T12:01:17.730Z,95884.01
2018-05-12T12:03:46.361Z,95883.70
2018-05-12T12:06:22.766Z,95883.28
2018-05-12T12:08:55.548Z,95878.28
2018-05-12T12:11:25.960Z,95870.83
2018-05-12T12:13:55.584Z,95862.05
2018-05-12T12:16:30.151Z,95864.73
2018-05-12T12:21:48.300Z,95857.98
2018-05-12T12:30:13.955Z,95847.14
2018-05-12T12:32:53.627Z,95850.86
2018-05-12T12:35:46.541Z,95848.84
2018-05-12T12:38:25.291Z,95844.69
2018-05-12T12:54:25.992Z,95859.46
2018-05-12T12:56:55.365Z,95859.02
2018-05-12T12:59:23.299Z,95859.61
2018-05-12T13:01:53.322Z,95850.88
2018-05-12T13:04:20.884Z,95858.29
2018-05-12T13:06:50.011Z,95850.84
2018-05-12T13:09:20.066Z,95845.92
2018-05-12T13:11:52.793Z,95842.08
2018-05-12T13:14:24.234Z,95841.91
2018-05-12T13:17:03.532Z,95843.05
2018-05-12T13:19:40.801Z,95828.17
2018-05-12T13:22:11.301Z,95827.34
2018-05-12T13:24:38.969Z,95823.36
2018-05-12T13:27:16.413Z,95808.65
2018-05-12T13:29:45.426Z,95819.29
2018-05-12T13:32:26.127Z,95823.48
2018-05-12T13:34:54.547Z,95821.56
2018-05-12T13:37:23.312Z,95825.23
2018-05-12T13:39:52.737Z,95822.34
2018-05-12T13:42:20.699Z,95820.59
2018-05-12T13:44:48.356Z,95816.03
2018-05-12T13:47:17.173Z,95818.72
2018-05-12T13:49:44.691Z,95824.95
2018-05-12T13:52:12.272Z,95823.41
2018-05-12T13:54:39.822Z,95830.41
2018-05-12T13:57:08.235Z,95832.08
2018-05-12T13:59:36.071Z,95839.20
2018-05-12T14:02:04.846Z,95841.97
2018-05-12T14:04:32.387Z,95838.69
2018-05-12T14:06:59.965Z,95841.81
2018-05-12T14:09:33.573Z,95841.06
2018-05-12T14:12:01.459Z,95834.52
2018-05-12T14:14:30.416Z,95833.03
2018-05-12T14:16:58.946Z,95828.72
2018-05-12T14:19:27.253Z,95829.77
2018-05-12T14:21:54.972Z,95823.30
2018-05-12T14:24:22.670Z,95831.20
2018-05-12T14:26:51.513Z,95838.83
2018-05-12T14:29:21.290Z,95838.15
2018-05-12T14:31:49.484Z,95836.27
2018-05-12T14:34:17.138Z,95830.91
2018-05-12T14:36:44.930Z,95838.13
2018-05-12T14:39:14.160Z,95836.88
2018-05-12T14:41:42.634Z,95845.30
2018-05-12T14:44:10.305Z,95843.69
2018-05-12T14:46:38.085Z,95840.19
2018-05-12T14:49:05.856Z,95836.66
2018-05-12T14:51:36.014Z,95829.18
2018-05-12T14:54:05.227Z,95830.27
2018-05-12T14:56:35.009Z,95827.72
2018-05-12T14:59:03.668Z,95823.35
2018-05-12T15:01:31.472Z,95821.77
2018-05-12T15:03:59.549Z,95821.30
2018-05-12T15:06:28.504Z,95820.28
2018-05-12T15:08:56.235Z,95811.38
2018-05-12T15:11:25.276Z,95819.03
2018-05-12T15:13:52.984Z,95798.20
2018-05-12T15:16:21.445Z,95808.25
2018-05-12T15:18:50.454Z,95808.70
2018-05-12T15:21:20.829Z,95806.81
2018-05-12T15:23:48.701Z,95799.55
2018-05-12T15:26:16.352Z,95795.94
2018-05-12T15:28:44.853Z,95799.91
2018-05-12T15:31:14.428Z,95799.19
2018-05-12T15:33:45.791Z,95799.78
2018-05-12T15:36:13.628Z,95799.14
2018-05-12T15:38:42.576Z,95797.94
2018-05-12T15:43:57.727Z,95792.16
2018-05-12T15:46:27.183Z,95789.63
2018-05-12T15:48:57.281Z,95788.69
2018-05-12T15:51:25.830Z,95787.55
2018-05-12T15:53:53.644Z,95789.14
2018-05-12T15:56:22.362Z,95783.34
2018-05-12T15:58:51.288Z,95790.55
2018-05-12T16:03:53.144Z,95788.88
2018-05-12T16:06:22.719Z,95787.48
2018-05-12T16:08:51.120Z,95786.71
2018-05-12T16:11:20.153Z,95789.15
2018-05-12T16:13:47.774Z,95791.38
2018-05-12T16:16:15.385Z,95776.72
2018-05-12T16:18:43.009Z,95799.73
2018-05-12T16:21:13.618Z,95787.34
2018-05-12T16:23:41.386Z,95800.02
2018-05-12T16:26:09.065Z,95796.80
2018-05-12T16:28:36.654Z,95797.80
2018-05-12T16:31:05.092Z,95794.64
2018-05-12T16:33:33.896Z,95788.52
2018-05-12T16:36:03.545Z,95793.73
2018-05-12T16:38:33.427Z,95791.62
2018-05-12T16:41:02.880Z,95791.50
2018-05-12T16:43:33.551Z,95796.33
2018-05-12T16:46:01.315Z,95788.31
2018-05-12T16:48:29.009Z,95787.15
2018-05-12T16:50:57.576Z,95785.47
2018-05-12T16:53:25.063Z,95778.78
2018-05-12T16:55:52.646Z,95773.92
2018-05-12T16:58:21.346Z,95762.40
2018-05-12T17:00:49.330Z,95772.86
2018-05-12T17:03:17.642Z,95771.77
2018-05-12T17:05:46.077Z,95766.67
2018-05-12T17:08:15.194Z,95762.84
2018-05-12T17:10:43.074Z,95763.70
2018-05-12T17:13:13.480Z,95767.62
2018-05-12T17:15:44.750Z,95766.20
2018-05-12T17:18:14.101Z,95768.08
2018-05-12T17:20:41.815Z,95767.61
2018-05-12T17:23:15.751Z,95764.42
2018-05-12T17:25:43.477Z,95762.52
2018-05-12T17:28:11.786Z,95764.67
2018-05-12T17:30:40.240Z,95759.62
2018-05-12T17:33:09.896Z,95758.31
2018-05-12T17:35:37.668Z,95760.46
2018-05-12T17:38:05.322Z,95766.76
2018-05-12T17:40:32.992Z,95767.92
2018-05-12T17:43:00.508Z,95770.58
2018-05-12T17:45:28.135Z,95769.72
2018-05-12T17:47:55.797Z,95777.30
2018-05-12T17:50:23.525Z,95777.22
2018-05-12T17:52:51.239Z,95777.48
2018-05-12T17:55:19.113Z,95782.80
2018-05-12T17:57:48.008Z,95778.33
2018-05-12T18:00:15.676Z,95783.81
2018-05-12T18:02:45.317Z,95780.96
2018-05-12T18:05:14.319Z,95775.84
2018-05-12T18:07:42.059Z,95774.14
2018-05-12T18:10:10.563Z,95775.66
2018-05-12T18:12:38.254Z,95774.25
2018-05-12T18:15:06.056Z,95773.38
2018-05-12T18:17:38.344Z,95769.98
2018-05-12T18:20:06.083Z,95775.02
2018-05-12T18:22:33.757Z,95777.84
2018-05-12T18:25:01.517Z,95782.47
2018-05-12T18:27:30.921Z,95779.14
2018-05-12T18:29:58.584Z,95782.39
2018-05-12T18:32:26.307Z,95789.42
2018-05-12T18:34:54.893Z,95793.03
2018-05-12T18:37:22.603Z,95790.40
2018-05-12T18:39:50.345Z,95788.77
2018-05-12T18:42:18.012Z,95798.12
2018-05-12T18:44:45.702Z,95786.86
2018-05-12T18:47:14.221Z,95794.16
2018-05-12T18:49:42.625Z,95795.44
2018-05-12T18:52:10.216Z,95798.93
2018-05-12T18:54:37.813Z,95803.97
2018-05-12T18:57:05.389Z,95802.93
2018-05-12T18:59:35.576Z,95807.86
2018-05-12T19:02:03.160Z,95808.52
2018-05-12T19:04:31.636Z,95809.27
2018-05-12T19:07:00.047Z,95812.45
2018-05-12T19:09:27.683Z,95816.32
2018-05-12T19:11:55.409Z,95816.78
2018-05-12T19:14:23.215Z,95820.38
2018-05-12T19:16:50.963Z,95818.98
2018-05-12T19:19:19.163Z,95825.41
2018-05-12T19:21:47.511Z,95822.89
2018-05-12T19:24:15.156Z,95833.84
2018-05-12T19:26:42.868Z,95827.84
2018-05-12T19:29:10.829Z,95836.29
2018-05-12T19:31:38.638Z,95832.73
2018-05-12T19:34:06.395Z,95832.66
2018-05-12T19:41:57.731Z,95830.16
2018-05-12T19:44:25.315Z,95827.80
2018-05-12T19:46:52.913Z,95820.67
2018-05-12T19:49:20.538Z,95823.84
2018-05-12T19:51:48.181Z,95821.87
2018-05-12T19:54:15.842Z,95826.48
2018-05-12T19:56:43.592Z,95825.80
2018-05-12T19:59:11.274Z,95826.21
2018-05-12T20:01:38.917Z,95821.77
2018-05-12T20:04:06.482Z,95819.89
2018-05-12T20:06:34.162Z,95819.83
2018-05-12T20:09:01.902Z,95830.06
2018-05-12T20:11:29.735Z,95828.30
2018-05-12T20:13:57.450Z,95830.60
2018-05-12T20:16:25.109Z,95818.47
2018-05-12T20:18:52.716Z,95817.58
2018-05-12T20:21:20.437Z,95814.18
2018-05-12T20:23:48.140Z,95810.95
2018-05-12T20:26:15.858Z,95812.55
2018-05-12T20:28:44.363Z,95820.44
2018-05-12T20:31:12.395Z,95814.34
2018-05-12T20:33:40.021Z,95809.13
2018-05-12T20:36:07.811Z,95811.00
2018-05-12T20:38:35.518Z,95808.23
2018-05-12T20:41:03.160Z,95803.30
2018-05-12T20:43:30.997Z,95802.30
2018-05-12T20:45:58.594Z,95800.16
2018-05-12T20:48:26.109Z,95794.19
2018-05-12T20:50:53.667Z,95802.07
2018-05-12T20:53:21.194Z,95802.36
2018-05-12T20:55:48.897Z,95789.41
2018-05-12T20:58:16.604Z,95803.52
2018-05-12T21:00:44.208Z,95811.44
2018-05-12T21:03:11.831Z,95802.75
2018-05-12T21:05:39.949Z,95803.38
2018-05-12T21:08:08.679Z,95800.52
2018-05-12T21:10:36.357Z,95798.66
2018-05-12T21:13:04.022Z,95799.96
2018-05-12T21:15:32.133Z,95806.20
2018-05-12T21:17:59.757Z,95801.89
2018-05-12T21:20:27.605Z,95803.19
2018-05-12T21:22:55.255Z,95808.46
2018-05-12T21:25:22.828Z,95808.91
2018-05-12T21:27:50.452Z,95798.98
2018-05-12T21:32:51.821Z,95804.87
2018-05-12T21:35:20.383Z,95801.79
2018-05-12T21:37:48.057Z,95801.23
2018-05-12T21:40:15.592Z,95807.54
2018-05-12T21:42:43.188Z,95802.34
2018-05-12T21:45:10.858Z,95806.67
2018-05-12T21:47:38.617Z,95800.00
2018-05-12T21:50:06.416Z,95806.45
2018-05-12T21:52:33.944Z,95799.25
2018-05-12T21:55:01.654Z,95801.84
2018-05-12T21:57:29.286Z,95796.91
2018-05-12T21:59:56.909Z,95805.30
2018-05-12T22:02:24.710Z,95798.80
2018-05-12T22:04:52.284Z,95790.98
2018-05-12T22:07:20.085Z,95791.08
2018-05-12T22:09:47.754Z,95785.77
2018-05-12T22:12:16.285Z,95779.56
2018-05-12T22:14:43.904Z,95780.86
2018-05-12T22:17:12.817Z,95774.64
2018-05-12T22:19:40.496Z,95774.04
2018-05-12T22:22:08.231Z,95777.30
2018-05-12T22:24:35.832Z,95775.84
2018-05-12T22:27:14.340Z,95773.33
2018-05-12T22:29:42.192Z,95766.45
2018-05-12T22:32:09.798Z,95767.05
2018-05-12T22:34:37.510Z,95763.77
2018-05-12T22:37:05.156Z,95756.59
2018-05-12T22:39:34.053Z,95759.33
2018-05-12T22:42:01.752Z,95758.00
2018-05-12T22:44:29.425Z,95757.55
2018-05-12T22:46:56.969Z,95760.16
2018-05-12T22:49:24.511Z,95747.14
2018-05-12T22:51:52.029Z,95742.95
2018-05-12T22:54:19.772Z,95748.97
2018-05-12T22:56:47.400Z,95747.63
2018-05-12T22:59:14.997Z,95742.97
2018-05-12T23:01:42.554Z,95743.77
2018-05-12T23:04:10.145Z,95746.07
2018-05-12T23:06:37.738Z,95739.87
2018-05-12T23:09:05.388Z,95740.78
2018-05-12T23:11:33.021Z,95741.03
2018-05-12T23:14:00.708Z,95735.47
2018-05-12T23:16:28.372Z,95730.66
2018-05-12T23:18:56.043Z,95732.59
2018-05-12T23:21:23.691Z,95723.66
2018-05-12T23:23:51.221Z,95730.77
2018-05-12T23:26:18.875Z,95729.84
2018-05-12T23:28:46.744Z,95725.54
2018-05-12T23:31:14.299Z,95720.77
2018-05-12T23:33:41.972Z,95717.48
2018-05-12T23:36:09.634Z,95720.95
2018-05-12T23:38:37.263Z,95718.22
2018-05-12T23:41:04.984Z,95706.58
2018-05-12T23:43:32.699Z,95701.81
2018-05-12T23:46:00.319Z,95699.41
2018-05-12T23:48:27.961Z,95702.47
2018-05-12T23:50:55.588Z,95700.33
2018-05-12T23:53:23.191Z,95699.91
2018-05-12T23:55:50.857Z,95697.30
2018-05-12T23:58:18.521Z,95698.85
